»·PEaware :: N715MG KSMF-KFAT

N715MG :: KSMF-KFAT

FLIGHT INFORMATION

Flight Status: Arrived
Operator: Privately registered:
United States
More flights under this callsign
Pilot: Jonathan W. (21112)
Aircraft: SOCATA TBM-900
(TBM9)
More flights by this aircraft type
Origin: KSMF Sacramento Intl
United States
Destination: KFAT Fresno Yosemite Intl
United States
More flights between these airports :: More routes between these airports
Route: +FTHIL2 FRA
File this flight plan on PilotEdge
Remarks:
Altitude:
(Current/Filed)
7,000ft
Speed:
(Current/Filed)
220kts
Departed: 21-Feb-19 02:14 PM
Arrived: 21-Feb-19 03:46 PM
Distance/Time
Traveled:
146nm/1:31
Distance/Time
To Go:
Arrived

Flight Plot

Page will automatically refresh every two minutes.

Flight plan parsing failed; only flown route is shown


Map Options




Map Legend


Flown Route
Filed Route
Departure Airport
Arrival Airport
Navaid (VOR, NDB)
Fix

Horizontal Profiles

Position Reports

Time Latitude Longitude Heading Altitude Ground
Speed
21-Feb-19 13:40 38.681489 -121.597518 0 19ft 0kts
21-Feb-19 13:41 38.681489 -121.597518 0 19ft 0kts
21-Feb-19 13:42 38.681489 -121.597518 0 19ft 0kts
21-Feb-19 13:43 38.681489 -121.597518 0 19ft 0kts
21-Feb-19 13:44 38.681489 -121.597518 0 19ft 0kts
21-Feb-19 13:45 38.681489 -121.597518 0 19ft 0kts
21-Feb-19 13:51 38.681488 -121.597519 0 19ft 0kts
21-Feb-19 13:52 38.681488 -121.597519 0 19ft 0kts
21-Feb-19 13:53 38.681488 -121.597519 0 19ft 0kts
21-Feb-19 13:55 38.681488 -121.597519 0 19ft 0kts
21-Feb-19 13:56 38.681488 -121.597519 0 19ft 0kts
21-Feb-19 13:57 38.681488 -121.597519 0 19ft 0kts
21-Feb-19 13:58 38.681488 -121.597519 0 19ft 0kts
21-Feb-19 13:59 38.681488 -121.597519 0 19ft 0kts
21-Feb-19 14:00 38.681488 -121.597519 0 19ft 0kts
21-Feb-19 14:01 38.681488 -121.597519 0 19ft 0kts
21-Feb-19 14:02 38.681488 -121.597519 0 19ft 0kts
21-Feb-19 14:03 38.681488 -121.597519 0 19ft 0kts
21-Feb-19 14:04 38.681488 -121.597519 0 19ft 0kts
21-Feb-19 14:05 38.681533 -121.597519 0 19ft 0kts
21-Feb-19 14:06 38.681533 -121.597519 0 19ft 0kts
21-Feb-19 14:07 38.681533 -121.597519 0 19ft 0kts
21-Feb-19 14:08 38.681533 -121.597519 0 19ft 0kts
21-Feb-19 14:09 38.681628 -121.597657 289 20ft 3kts
21-Feb-19 14:10 38.681766 -121.598737 320 19ft 6kts
21-Feb-19 14:11 38.683191 -121.598856 0 20ft 10kts
21-Feb-19 14:12 38.683834 -121.599689 270 19ft 4kts
21-Feb-19 14:13 38.683844 -121.600598 270 19ft 10kts
21-Feb-19 14:14 38.693341 -121.601580 355 109ft 124kts
21-Feb-19 14:14 38.711715 -121.606996 352 1205ft 133kts
21-Feb-19 14:15 38.738107 -121.612627 352 2663ft 138kts
21-Feb-19 14:17 38.769609 -121.618602 353 4198ft 144kts
21-Feb-19 14:18 38.794441 -121.614465 52 5324ft 139kts
21-Feb-19 14:18 38.791643 -121.592626 155 6282ft 121kts
21-Feb-19 14:19 38.771240 -121.581354 156 7449ft 124kts
21-Feb-19 14:20 38.750477 -121.569065 151 8936ft 122kts
21-Feb-19 14:21 38.734937 -121.553366 142 9953ft 136kts
21-Feb-19 14:22 38.721135 -121.534807 136 9876ft 166kts
21-Feb-19 14:23 38.707477 -121.513486 133 9284ft 153kts
21-Feb-19 14:24 38.694633 -121.489971 129 9755ft 102kts
21-Feb-19 14:25 38.686404 -121.466149 144 10919ft 126kts
21-Feb-19 14:26 38.669347 -121.444844 140 12505ft 133kts
21-Feb-19 14:27 38.653911 -121.421386 138 14033ft 136kts
21-Feb-19 14:28 38.639255 -121.397433 137 15531ft 143kts
21-Feb-19 14:29 38.623887 -121.371592 137 17115ft 145kts
21-Feb-19 14:30 38.606832 -121.342651 138 18738ft 151kts
21-Feb-19 14:31 38.587665 -121.310357 135 19034ft 212kts
21-Feb-19 14:32 38.564243 -121.270358 133 19008ft 248kts
21-Feb-19 14:33 38.537789 -121.225219 133 18991ft 264kts
21-Feb-19 14:34 38.509377 -121.176892 133 18984ft 269kts
21-Feb-19 14:35 38.479896 -121.126866 133 18984ft 271kts
21-Feb-19 14:36 38.450129 -121.076439 133 18985ft 272kts
21-Feb-19 14:37 38.420259 -121.025918 133 18987ft 273kts
21-Feb-19 14:38 38.390194 -120.975161 133 18989ft 273kts
21-Feb-19 14:39 38.359729 -120.923794 133 18990ft 273kts
21-Feb-19 14:40 38.328877 -120.871864 133 18990ft 273kts
21-Feb-19 14:41 38.297877 -120.819765 133 18992ft 274kts
21-Feb-19 14:42 38.267082 -120.768096 133 18994ft 274kts
21-Feb-19 14:43 38.236150 -120.716283 133 18997ft 273kts
21-Feb-19 14:44 38.205471 -120.664968 133 18997ft 274kts
21-Feb-19 14:45 38.174836 -120.613813 133 18998ft 274kts
21-Feb-19 14:46 38.144532 -120.563287 133 18997ft 273kts
21-Feb-19 14:47 38.114674 -120.513581 133 18997ft 273kts
21-Feb-19 14:48 38.083830 -120.462310 133 18997ft 273kts
21-Feb-19 14:49 38.054196 -120.412254 131 18997ft 275kts
21-Feb-19 14:50 38.025671 -120.360907 131 18997ft 275kts
21-Feb-19 14:51 37.998427 -120.311918 131 18995ft 274kts
21-Feb-19 14:52 37.971198 -120.263025 131 18994ft 274kts
21-Feb-19 14:53 37.942998 -120.215007 146 18957ft 267kts
21-Feb-19 14:54 37.904028 -120.185498 154 18996ft 262kts
21-Feb-19 14:55 37.865124 -120.156488 154 19005ft 263kts
21-Feb-19 14:56 37.825537 -120.126967 154 19007ft 264kts
21-Feb-19 14:57 37.785900 -120.097437 154 19009ft 264kts
21-Feb-19 14:58 37.746247 -120.067933 154 19011ft 264kts
21-Feb-19 14:59 37.706890 -120.038687 154 19008ft 264kts
21-Feb-19 15:00 37.667632 -120.009543 154 19006ft 264kts
21-Feb-19 15:01 37.628736 -119.980716 154 19004ft 264kts
21-Feb-19 15:02 37.589318 -119.951527 154 19004ft 264kts
21-Feb-19 15:03 37.551036 -119.923215 154 19009ft 264kts
21-Feb-19 15:04 37.513304 -119.895354 154 19012ft 263kts
21-Feb-19 15:05 37.477436 -119.868874 154 18697ft 252kts
21-Feb-19 15:06 37.444908 -119.844893 154 18065ft 242kts
21-Feb-19 15:07 37.410489 -119.819591 154 18022ft 251kts
21-Feb-19 15:08 37.376268 -119.794429 154 17829ft 242kts
21-Feb-19 15:09 37.346400 -119.772461 154 16927ft 229kts
21-Feb-19 15:10 37.318186 -119.751763 154 16099ft 223kts
21-Feb-19 15:11 37.291457 -119.732166 154 15331ft 219kts
21-Feb-19 15:12 37.265503 -119.713150 153 14576ft 216kts
21-Feb-19 15:13 37.241381 -119.695488 153 13867ft 214kts
21-Feb-19 15:14 37.220776 -119.680410 153 13257ft 213kts
21-Feb-19 15:15 37.201826 -119.666553 153 12724ft 210kts
21-Feb-19 15:16 37.177753 -119.648952 153 12218ft 202kts
21-Feb-19 15:17 37.152642 -119.630622 153 11815ft 200kts
21-Feb-19 15:18 37.120940 -119.604908 152 11294ft 209kts
21-Feb-19 15:19 37.094189 -119.585397 152 11207ft 182kts
21-Feb-19 15:20 37.066989 -119.565413 152 10816ft 185kts
21-Feb-19 15:21 37.038607 -119.545343 152 9926ft 200kts
21-Feb-19 15:22 37.010467 -119.528410 157 9105ft 207kts
21-Feb-19 15:23 36.985081 -119.515110 157 8395ft 211kts
21-Feb-19 15:24 36.962417 -119.503413 157 7762ft 215kts
21-Feb-19 15:25 36.938071 -119.491008 157 6907ft 224kts
21-Feb-19 15:26 36.903566 -119.473692 157 5625ft 232kts
21-Feb-19 15:27 36.865360 -119.454698 157 5219ft 214kts
21-Feb-19 15:28 36.829575 -119.436975 157 5223ft 201kts
21-Feb-19 15:29 36.794326 -119.419541 157 5226ft 197kts
21-Feb-19 15:30 36.759776 -119.402498 157 5229ft 196kts
21-Feb-19 15:31 36.728418 -119.387100 157 5232ft 195kts
21-Feb-19 15:32 36.699708 -119.381033 203 5094ft 206kts
21-Feb-19 15:33 36.676763 -119.407519 222 4440ft 224kts
21-Feb-19 15:34 36.658274 -119.446221 280 3713ft 206kts
21-Feb-19 15:35 36.665074 -119.491338 276 3713ft 171kts
21-Feb-19 15:36 36.669954 -119.530868 302 3701ft 151kts
21-Feb-19 15:37 36.685989 -119.558461 305 3143ft 140kts
21-Feb-19 15:38 36.701118 -119.584995 305 2635ft 134kts
21-Feb-19 15:39 36.715395 -119.610025 305 2165ft 129kts
21-Feb-19 15:40 36.728966 -119.633802 305 1741ft 120kts
21-Feb-19 15:41 36.740055 -119.653221 305 1348ft 103kts
21-Feb-19 15:42 36.750155 -119.670904 305 1019ft 95kts
21-Feb-19 15:43 36.759987 -119.688144 305 702ft 98kts
21-Feb-19 15:44 36.770004 -119.705489 306 349ft 85kts
21-Feb-19 15:45 36.773025 -119.711252 288 328ft 21kts

Navigation Log

Ident Type
Flight plan parsing failed, navigation log unavailable